sensor_id;sensor_type;location;lat;lon;timestamp;temperature;humidity
19483;DHT22;9882;51.166;6.992;2022-11-15T00:00:58;9.90;99.90
19483;DHT22;9882;51.166;6.992;2022-11-15T00:03:46;10.00;99.90
19483;DHT22;9882;51.166;6.992;2022-11-15T00:06:37;10.10;99.90
19483;DHT22;9882;51.166;6.992;2022-11-15T00:09:23;10.00;99.90
19483;DHT22;9882;51.166;6.992;2022-11-15T00:12:10;10.00;99.90
19483;DHT22;9882;51.166;6.992;2022-11-15T00:14:57;10.20;99.90
19483;DHT22;9882;51.166;6.992;2022-11-15T00:17:44;10.10;99.90
19483;DHT22;9882;51.166;6.992;2022-11-15T00:20:33;10.20;99.90
19483;DHT22;9882;51.166;6.992;2022-11-15T00:23:20;10.30;99.90
19483;DHT22;9882;51.166;6.992;2022-11-15T00:26:11;10.20;99.90
19483;DHT22;9882;51.166;6.992;2022-11-15T00:28:58;10.20;99.90
19483;DHT22;9882;51.166;6.992;2022-11-15T00:31:45;10.10;99.90
19483;DHT22;9882;51.166;6.992;2022-11-15T00:34:32;10.30;99.90
19483;DHT22;9882;51.166;6.992;2022-11-15T00:37:20;10.30;99.90
19483;DHT22;9882;51.166;6.992;2022-11-15T00:40:10;10.30;99.90
19483;DHT22;9882;51.166;6.992;2022-11-15T00:42:59;10.50;99.90
19483;DHT22;9882;51.166;6.992;2022-11-15T00:45:52;10.30;99.90
19483;DHT22;9882;51.166;6.992;2022-11-15T00:49:04;10.40;99.90
19483;DHT22;9882;51.166;6.992;2022-11-15T00:52:07;10.60;99.90
19483;DHT22;9882;51.166;6.992;2022-11-15T00:54:57;10.70;99.90
19483;DHT22;9882;51.166;6.992;2022-11-15T00:57:48;10.70;99.90
19483;DHT22;9882;51.166;6.992;2022-11-15T01:00:36;10.60;99.90
19483;DHT22;9882;51.166;6.992;2022-11-15T01:03:32;10.60;99.90
19483;DHT22;9882;51.166;6.992;2022-11-15T01:06:26;10.50;99.90
19483;DHT22;9882;51.166;6.992;2022-11-15T01:09:13;10.50;99.90
19483;DHT22;9882;51.166;6.992;2022-11-15T01:12:02;10.60;99.90
19483;DHT22;9882;51.166;6.992;2022-11-15T01:19:32;10.80;99.90
19483;DHT22;9882;51.166;6.992;2022-11-15T01:22:29;10.70;99.90
19483;DHT22;9882;51.166;6.992;2022-11-15T01:25:20;10.70;99.90
19483;DHT22;9882;51.166;6.992;2022-11-15T01:28:09;10.70;99.90
19483;DHT22;9882;51.166;6.992;2022-11-15T01:31:00;10.60;99.90
19483;DHT22;9882;51.166;6.992;2022-11-15T01:34:58;10.70;99.90
19483;DHT22;9882;51.166;6.992;2022-11-15T01:37:45;10.90;99.90
19483;DHT22;9882;51.166;6.992;2022-11-15T01:40:36;11.10;99.90
19483;DHT22;9882;51.166;6.992;2022-11-15T01:47:14;11.10;99.90
19483;DHT22;9882;51.166;6.992;2022-11-15T01:50:05;11.10;99.90
19483;DHT22;9882;51.166;6.992;2022-11-15T01:52:53;11.00;99.90
19483;DHT22;9882;51.166;6.992;2022-11-15T01:55:41;11.00;99.90
19483;DHT22;9882;51.166;6.992;2022-11-15T01:58:28;11.00;99.90
19483;DHT22;9882;51.166;6.992;2022-11-15T02:01:16;11.10;99.90
19483;DHT22;9882;51.166;6.992;2022-11-15T02:04:16;11.30;99.90
19483;DHT22;9882;51.166;6.992;2022-11-15T02:07:07;10.90;99.90
19483;DHT22;9882;51.166;6.992;2022-11-15T02:14:20;11.00;99.90
19483;DHT22;9882;51.166;6.992;2022-11-15T02:17:21;10.90;99.90
19483;DHT22;9882;51.166;6.992;2022-11-15T02:20:43;10.90;99.90
19483;DHT22;9882;51.166;6.992;2022-11-15T02:24:19;11.00;99.90
19483;DHT22;9882;51.166;6.992;2022-11-15T02:30:47;11.30;99.90
19483;DHT22;9882;51.166;6.992;2022-11-15T02:33:47;11.30;99.90
19483;DHT22;9882;51.166;6.992;2022-11-15T02:36:43;11.00;99.90
19483;DHT22;9882;51.166;6.992;2022-11-15T02:39:41;11.00;99.90
19483;DHT22;9882;51.166;6.992;2022-11-15T02:42:33;11.10;99.90
19483;DHT22;9882;51.166;6.992;2022-11-15T02:46:01;10.90;99.90
19483;DHT22;9882;51.166;6.992;2022-11-15T02:48:54;11.00;99.90
19483;DHT22;9882;51.166;6.992;2022-11-15T02:51:49;11.10;99.90
19483;DHT22;9882;51.166;6.992;2022-11-15T02:58:23;11.20;99.90
19483;DHT22;9882;51.166;6.992;2022-11-15T03:01:22;11.00;99.90
19483;DHT22;9882;51.166;6.992;2022-11-15T03:04:21;11.10;99.90
19483;DHT22;9882;51.166;6.992;2022-11-15T03:10:56;11.10;99.90
19483;DHT22;9882;51.166;6.992;2022-11-15T03:14:36;11.10;99.90
19483;DHT22;9882;51.166;6.992;2022-11-15T03:17:29;11.10;99.90
19483;DHT22;9882;51.166;6.992;2022-11-15T03:20:51;11.00;99.90
19483;DHT22;9882;51.166;6.992;2022-11-15T03:24:16;11.20;99.90
19483;DHT22;9882;51.166;6.992;2022-11-15T03:27:21;11.40;99.90
19483;DHT22;9882;51.166;6.992;2022-11-15T03:30:16;11.40;99.90
19483;DHT22;9882;51.166;6.992;2022-11-15T03:33:14;11.30;99.90
19483;DHT22;9882;51.166;6.992;2022-11-15T03:36:27;11.20;99.90
19483;DHT22;9882;51.166;6.992;2022-11-15T03:39:29;11.20;99.90
19483;DHT22;9882;51.166;6.992;2022-11-15T03:42:21;11.10;99.90
19483;DHT22;9882;51.166;6.992;2022-11-15T03:45:13;11.40;99.90
19483;DHT22;9882;51.166;6.992;2022-11-15T03:51:53;11.40;99.90
19483;DHT22;9882;51.166;6.992;2022-11-15T03:54:50;11.50;99.90
19483;DHT22;9882;51.166;6.992;2022-11-15T03:57:39;11.40;99.90
19483;DHT22;9882;51.166;6.992;2022-11-15T04:08:06;11.60;99.90
19483;DHT22;9882;51.166;6.992;2022-11-15T04:10:54;11.40;99.90
19483;DHT22;9882;51.166;6.992;2022-11-15T04:18:45;11.40;99.90
19483;DHT22;9882;51.166;6.992;2022-11-15T04:21:53;11.40;99.90
19483;DHT22;9882;51.166;6.992;2022-11-15T04:24:59;11.20;99.90
19483;DHT22;9882;51.166;6.992;2022-11-15T04:31:50;11.10;99.90
19483;DHT22;9882;51.166;6.992;2022-11-15T04:34:37;11.20;99.90
19483;DHT22;9882;51.166;6.992;2022-11-15T04:37:24;11.00;99.90
19483;DHT22;9882;51.166;6.992;2022-11-15T04:47:43;11.10;99.90
19483;DHT22;9882;51.166;6.992;2022-11-15T04:50:33;11.30;99.90
19483;DHT22;9882;51.166;6.992;2022-11-15T05:00:52;11.30;99.90
19483;DHT22;9882;51.166;6.992;2022-11-15T05:03:41;11.10;99.90
19483;DHT22;9882;51.166;6.992;2022-11-15T05:06:48;11.30;99.90
19483;DHT22;9882;51.166;6.992;2022-11-15T05:13:49;11.40;99.90
19483;DHT22;9882;51.166;6.992;2022-11-15T05:16:37;11.30;99.90
19483;DHT22;9882;51.166;6.992;2022-11-15T05:19:25;11.20;99.90
19483;DHT22;9882;51.166;6.992;2022-11-15T05:29:42;11.40;99.90
19483;DHT22;9882;51.166;6.992;2022-11-15T05:32:29;11.30;99.90
19483;DHT22;9882;51.166;6.992;2022-11-15T05:35:30;11.40;99.90
19483;DHT22;9882;51.166;6.992;2022-11-15T05:38:42;11.40;99.90
19483;DHT22;9882;51.166;6.992;2022-11-15T05:41:46;11.60;99.90
19483;DHT22;9882;51.166;6.992;2022-11-15T05:44:36;11.50;99.90
19483;DHT22;9882;51.166;6.992;2022-11-15T05:47:41;11.60;99.90
19483;DHT22;9882;51.166;6.992;2022-11-15T05:51:20;11.30;99.90
19483;DHT22;9882;51.166;6.992;2022-11-15T05:57:45;11.30;99.90
19483;DHT22;9882;51.166;6.992;2022-11-15T06:00:32;11.60;99.90
19483;DHT22;9882;51.166;6.992;2022-11-15T06:03:19;11.60;99.90
19483;DHT22;9882;51.166;6.992;2022-11-15T06:06:06;11.60;99.90
19483;DHT22;9882;51.166;6.992;2022-11-15T06:08:58;11.70;99.90
19483;DHT22;9882;51.166;6.992;2022-11-15T06:11:45;11.70;99.90
19483;DHT22;9882;51.166;6.992;2022-11-15T06:14:32;11.80;99.90
19483;DHT22;9882;51.166;6.992;2022-11-15T06:17:19;11.60;99.90
19483;DHT22;9882;51.166;6.992;2022-11-15T06:20:06;11.70;99.90
19483;DHT22;9882;51.166;6.992;2022-11-15T06:22:57;11.50;99.90
19483;DHT22;9882;51.166;6.992;2022-11-15T06:25:46;11.50;99.90
19483;DHT22;9882;51.166;6.992;2022-11-15T06:28:33;11.50;99.90
19483;DHT22;9882;51.166;6.992;2022-11-15T06:31:20;11.60;99.90
19483;DHT22;9882;51.166;6.992;2022-11-15T06:34:07;11.60;99.90
19483;DHT22;9882;51.166;6.992;2022-11-15T06:36:54;11.40;99.90
19483;DHT22;9882;51.166;6.992;2022-11-15T06:39:41;11.50;99.90
19483;DHT22;9882;51.166;6.992;2022-11-15T06:42:29;11.50;99.90
19483;DHT22;9882;51.166;6.992;2022-11-15T06:45:17;11.40;99.90
19483;DHT22;9882;51.166;6.992;2022-11-15T06:48:05;11.50;99.90
19483;DHT22;9882;51.166;6.992;2022-11-15T06:50:52;11.30;99.90
19483;DHT22;9882;51.166;6.992;2022-11-15T06:53:39;11.30;99.90
19483;DHT22;9882;51.166;6.992;2022-11-15T06:56:26;11.30;99.90
19483;DHT22;9882;51.166;6.992;2022-11-15T06:59:14;11.20;99.90
19483;DHT22;9882;51.166;6.992;2022-11-15T07:02:02;11.30;99.90
19483;DHT22;9882;51.166;6.992;2022-11-15T07:04:55;11.30;99.90
19483;DHT22;9882;51.166;6.992;2022-11-15T07:07:43;11.30;99.90
19483;DHT22;9882;51.166;6.992;2022-11-15T07:10:30;11.40;99.90
19483;DHT22;9882;51.166;6.992;2022-11-15T07:13:18;11.30;99.90
19483;DHT22;9882;51.166;6.992;2022-11-15T07:16:08;11.40;99.90
19483;DHT22;9882;51.166;6.992;2022-11-15T07:18:56;11.40;99.90
19483;DHT22;9882;51.166;6.992;2022-11-15T07:21:43;11.40;99.90
19483;DHT22;9882;51.166;6.992;2022-11-15T07:24:30;11.40;99.90
19483;DHT22;9882;51.166;6.992;2022-11-15T07:27:17;11.40;99.90
19483;DHT22;9882;51.166;6.992;2022-11-15T07:30:05;11.30;99.90
19483;DHT22;9882;51.166;6.992;2022-11-15T07:32:54;11.30;99.90
19483;DHT22;9882;51.166;6.992;2022-11-15T07:35:42;11.30;99.90
19483;DHT22;9882;51.166;6.992;2022-11-15T07:38:32;11.50;99.90
19483;DHT22;9882;51.166;6.992;2022-11-15T07:41:21;11.40;99.90
19483;DHT22;9882;51.166;6.992;2022-11-15T07:44:09;11.30;99.90
19483;DHT22;9882;51.166;6.992;2022-11-15T07:46:56;11.40;99.90
19483;DHT22;9882;51.166;6.992;2022-11-15T07:49:45;11.50;99.90
19483;DHT22;9882;51.166;6.992;2022-11-15T07:52:32;11.50;99.90
19483;DHT22;9882;51.166;6.992;2022-11-15T07:55:20;11.50;99.90
19483;DHT22;9882;51.166;6.992;2022-11-15T07:58:00;11.50;99.90
19483;DHT22;9882;51.166;6.992;2022-11-15T08:00:48;11.70;99.90
19483;DHT22;9882;51.166;6.992;2022-11-15T08:03:36;12.00;99.90
19483;DHT22;9882;51.166;6.992;2022-11-15T08:06:27;12.20;99.90
19483;DHT22;9882;51.166;6.992;2022-11-15T08:09:17;12.40;99.90
19483;DHT22;9882;51.166;6.992;2022-11-15T08:12:05;12.50;99.90
19483;DHT22;9882;51.166;6.992;2022-11-15T08:14:52;12.60;99.90
19483;DHT22;9882;51.166;6.992;2022-11-15T08:17:40;12.70;99.90
19483;DHT22;9882;51.166;6.992;2022-11-15T08:20:29;12.70;99.90
19483;DHT22;9882;51.166;6.992;2022-11-15T08:23:18;12.90;99.90
19483;DHT22;9882;51.166;6.992;2022-11-15T08:26:06;12.90;99.90
19483;DHT22;9882;51.166;6.992;2022-11-15T08:28:54;12.90;99.90
19483;DHT22;9882;51.166;6.992;2022-11-15T08:31:42;13.00;99.90
19483;DHT22;9882;51.166;6.992;2022-11-15T08:34:29;12.80;99.90
19483;DHT22;9882;51.166;6.992;2022-11-15T08:37:16;12.90;99.90
19483;DHT22;9882;51.166;6.992;2022-11-15T08:40:07;12.80;99.90
19483;DHT22;9882;51.166;6.992;2022-11-15T08:42:55;12.90;99.90
19483;DHT22;9882;51.166;6.992;2022-11-15T08:45:44;12.80;99.90
19483;DHT22;9882;51.166;6.992;2022-11-15T08:48:32;12.90;99.90
19483;DHT22;9882;51.166;6.992;2022-11-15T08:51:19;12.80;99.90
19483;DHT22;9882;51.166;6.992;2022-11-15T08:54:07;12.90;99.90
19483;DHT22;9882;51.166;6.992;2022-11-15T08:56:56;13.00;99.90
19483;DHT22;9882;51.166;6.992;2022-11-15T08:59:43;12.80;99.90
19483;DHT22;9882;51.166;6.992;2022-11-15T09:02:31;12.90;99.90
19483;DHT22;9882;51.166;6.992;2022-11-15T09:05:19;13.00;99.90
19483;DHT22;9882;51.166;6.992;2022-11-15T09:08:07;12.90;99.90
19483;DHT22;9882;51.166;6.992;2022-11-15T09:11:10;13.00;99.90
19483;DHT22;9882;51.166;6.992;2022-11-15T09:14:00;12.90;99.90
19483;DHT22;9882;51.166;6.992;2022-11-15T09:16:48;12.90;99.90
19483;DHT22;9882;51.166;6.992;2022-11-15T09:19:36;12.80;99.90
19483;DHT22;9882;51.166;6.992;2022-11-15T09:22:24;12.80;99.90
19483;DHT22;9882;51.166;6.992;2022-11-15T09:25:12;12.80;99.90
19483;DHT22;9882;51.166;6.992;2022-11-15T09:28:00;12.80;99.90
19483;DHT22;9882;51.166;6.992;2022-11-15T09:30:48;12.80;99.90
19483;DHT22;9882;51.166;6.992;2022-11-15T09:33:37;12.70;99.90
19483;DHT22;9882;51.166;6.992;2022-11-15T09:36:25;12.80;99.90
19483;DHT22;9882;51.166;6.992;2022-11-15T09:39:13;12.70;99.90
19483;DHT22;9882;51.166;6.992;2022-11-15T09:45:22;12.60;99.90
19483;DHT22;9882;51.166;6.992;2022-11-15T09:48:35;12.60;99.90
19483;DHT22;9882;51.166;6.992;2022-11-15T09:51:27;12.60;99.90
19483;DHT22;9882;51.166;6.992;2022-11-15T09:54:09;12.60;99.90
19483;DHT22;9882;51.166;6.992;2022-11-15T09:57:04;12.50;99.90
19483;DHT22;9882;51.166;6.992;2022-11-15T09:59:52;12.50;99.90
19483;DHT22;9882;51.166;6.992;2022-11-15T10:02:41;12.60;99.90
19483;DHT22;9882;51.166;6.992;2022-11-15T10:05:16;12.60;99.90
19483;DHT22;9882;51.166;6.992;2022-11-15T10:07:54;12.70;99.90
19483;DHT22;9882;51.166;6.992;2022-11-15T10:10:27;12.60;99.90
19483;DHT22;9882;51.166;6.992;2022-11-15T10:12:59;12.60;99.90
19483;DHT22;9882;51.166;6.992;2022-11-15T10:15:35;12.60;99.90
19483;DHT22;9882;51.166;6.992;2022-11-15T10:18:13;12.60;99.90
19483;DHT22;9882;51.166;6.992;2022-11-15T10:20:51;12.60;99.90
19483;DHT22;9882;51.166;6.992;2022-11-15T10:23:23;12.60;99.90
19483;DHT22;9882;51.166;6.992;2022-11-15T10:26:14;12.60;99.90
19483;DHT22;9882;51.166;6.992;2022-11-15T10:28:44;12.70;99.90
19483;DHT22;9882;51.166;6.992;2022-11-15T10:31:24;12.60;99.90
19483;DHT22;9882;51.166;6.992;2022-11-15T10:34:10;12.60;99.90
19483;DHT22;9882;51.166;6.992;2022-11-15T10:36:45;12.60;99.90
19483;DHT22;9882;51.166;6.992;2022-11-15T10:39:19;12.60;99.90
19483;DHT22;9882;51.166;6.992;2022-11-15T10:41:48;12.60;99.90
19483;DHT22;9882;51.166;6.992;2022-11-15T10:44:23;12.60;99.90
19483;DHT22;9882;51.166;6.992;2022-11-15T10:47:21;12.60;99.90
19483;DHT22;9882;51.166;6.992;2022-11-15T10:50:03;12.50;99.90
19483;DHT22;9882;51.166;6.992;2022-11-15T10:52:49;12.70;99.90
19483;DHT22;9882;51.166;6.992;2022-11-15T10:55:25;12.70;99.90
19483;DHT22;9882;51.166;6.992;2022-11-15T10:58:05;12.60;99.90
19483;DHT22;9882;51.166;6.992;2022-11-15T11:00:43;12.70;99.90
19483;DHT22;9882;51.166;6.992;2022-11-15T11:03:28;12.70;99.90
19483;DHT22;9882;51.166;6.992;2022-11-15T11:06:05;12.60;99.90
19483;DHT22;9882;51.166;6.992;2022-11-15T11:08:37;12.80;99.90
19483;DHT22;9882;51.166;6.992;2022-11-15T11:11:12;12.80;99.90
19483;DHT22;9882;51.166;6.992;2022-11-15T11:13:52;12.70;99.90
19483;DHT22;9882;51.166;6.992;2022-11-15T11:16:41;12.80;99.90
19483;DHT22;9882;51.166;6.992;2022-11-15T11:19:25;12.70;99.90
19483;DHT22;9882;51.166;6.992;2022-11-15T11:22:05;12.80;99.90
19483;DHT22;9882;51.166;6.992;2022-11-15T11:24:43;12.70;99.90
19483;DHT22;9882;51.166;6.992;2022-11-15T11:27:21;12.90;99.90
19483;DHT22;9882;51.166;6.992;2022-11-15T11:30:09;12.80;99.90
19483;DHT22;9882;51.166;6.992;2022-11-15T11:33:11;12.90;99.90
19483;DHT22;9882;51.166;6.992;2022-11-15T11:36:09;12.90;99.90
19483;DHT22;9882;51.166;6.992;2022-11-15T11:39:23;12.90;99.90
19483;DHT22;9882;51.166;6.992;2022-11-15T11:42:02;12.80;99.90
19483;DHT22;9882;51.166;6.992;2022-11-15T11:44:37;12.90;99.90
19483;DHT22;9882;51.166;6.992;2022-11-15T11:47:22;12.90;99.90
19483;DHT22;9882;51.166;6.992;2022-11-15T11:50:25;12.90;99.90
19483;DHT22;9882;51.166;6.992;2022-11-15T11:53:05;12.90;99.90
19483;DHT22;9882;51.166;6.992;2022-11-15T11:55:40;12.90;99.90
19483;DHT22;9882;51.166;6.992;2022-11-15T11:58:19;13.00;99.90
19483;DHT22;9882;51.166;6.992;2022-11-15T12:00:54;13.00;99.90
19483;DHT22;9882;51.166;6.992;2022-11-15T12:03:30;13.00;99.90
19483;DHT22;9882;51.166;6.992;2022-11-15T12:06:47;12.80;99.90
19483;DHT22;9882;51.166;6.992;2022-11-15T12:09:22;12.90;99.90
19483;DHT22;9882;51.166;6.992;2022-11-15T12:12:06;13.00;99.90
19483;DHT22;9882;51.166;6.992;2022-11-15T12:14:57;12.80;99.90
19483;DHT22;9882;51.166;6.992;2022-11-15T12:17:30;13.00;99.90
19483;DHT22;9882;51.166;6.992;2022-11-15T12:20:05;12.90;99.90
19483;DHT22;9882;51.166;6.992;2022-11-15T12:22:40;12.90;99.90
19483;DHT22;9882;51.166;6.992;2022-11-15T12:25:19;13.10;99.90
19483;DHT22;9882;51.166;6.992;2022-11-15T12:31:03;13.20;99.90
19483;DHT22;9882;51.166;6.992;2022-11-15T12:33:37;13.00;99.90
19483;DHT22;9882;51.166;6.992;2022-11-15T13:04:38;13.50;99.90
19483;DHT22;9882;51.166;6.992;2022-11-15T13:50:29;13.40;99.90
19483;DHT22;9882;51.166;6.992;2022-11-15T13:53:02;13.30;99.90
19483;DHT22;9882;51.166;6.992;2022-11-15T13:55:32;13.40;99.90
19483;DHT22;9882;51.166;6.992;2022-11-15T14:00:45;13.30;99.90
19483;DHT22;9882;51.166;6.992;2022-11-15T14:05:21;13.40;99.90
19483;DHT22;9882;51.166;6.992;2022-11-15T14:41:25;13.20;99.90
19483;DHT22;9882;51.166;6.992;2022-11-15T14:43:54;13.20;99.90
19483;DHT22;9882;51.166;6.992;2022-11-15T14:46:22;13.20;99.90
19483;DHT22;9882;51.166;6.992;2022-11-15T14:48:51;13.20;99.90
19483;DHT22;9882;51.166;6.992;2022-11-15T14:51:19;13.20;99.90
19483;DHT22;9882;51.166;6.992;2022-11-15T14:53:48;13.20;99.90
19483;DHT22;9882;51.166;6.992;2022-11-15T14:56:17;13.20;99.90
19483;DHT22;9882;51.166;6.992;2022-11-15T14:58:46;13.30;99.90
19483;DHT22;9882;51.166;6.992;2022-11-15T15:01:19;13.30;99.90
19483;DHT22;9882;51.166;6.992;2022-11-15T15:03:48;13.30;99.90
19483;DHT22;9882;51.166;6.992;2022-11-15T15:06:18;13.20;99.90
19483;DHT22;9882;51.166;6.992;2022-11-15T15:08:47;13.20;99.90
19483;DHT22;9882;51.166;6.992;2022-11-15T15:11:21;13.20;99.90
19483;DHT22;9882;51.166;6.992;2022-11-15T15:13:51;13.20;99.90
19483;DHT22;9882;51.166;6.992;2022-11-15T15:16:22;13.20;99.90
19483;DHT22;9882;51.166;6.992;2022-11-15T15:18:51;13.30;99.90
19483;DHT22;9882;51.166;6.992;2022-11-15T15:21:22;13.20;99.90
19483;DHT22;9882;51.166;6.992;2022-11-15T15:23:51;13.30;99.90
19483;DHT22;9882;51.166;6.992;2022-11-15T15:26:21;13.20;99.90
19483;DHT22;9882;51.166;6.992;2022-11-15T15:28:51;13.20;99.90
19483;DHT22;9882;51.166;6.992;2022-11-15T15:31:20;13.20;99.90
19483;DHT22;9882;51.166;6.992;2022-11-15T15:33:48;13.20;99.90
19483;DHT22;9882;51.166;6.992;2022-11-15T15:36:18;13.40;99.90
19483;DHT22;9882;51.166;6.992;2022-11-15T15:38:46;13.20;99.90
19483;DHT22;9882;51.166;6.992;2022-11-15T15:41:16;13.40;99.90
19483;DHT22;9882;51.166;6.992;2022-11-15T15:43:45;13.10;99.90
19483;DHT22;9882;51.166;6.992;2022-11-15T15:46:17;13.20;99.90
19483;DHT22;9882;51.166;6.992;2022-11-15T15:48:46;13.10;99.90
19483;DHT22;9882;51.166;6.992;2022-11-15T15:51:15;13.10;99.90
19483;DHT22;9882;51.166;6.992;2022-11-15T15:53:46;13.10;99.90
19483;DHT22;9882;51.166;6.992;2022-11-15T15:56:14;13.10;99.90
19483;DHT22;9882;51.166;6.992;2022-11-15T15:58:43;13.10;99.90
19483;DHT22;9882;51.166;6.992;2022-11-15T16:01:11;13.10;99.90
19483;DHT22;9882;51.166;6.992;2022-11-15T16:03:41;13.00;99.90
19483;DHT22;9882;51.166;6.992;2022-11-15T16:06:33;13.00;99.90
19483;DHT22;9882;51.166;6.992;2022-11-15T16:09:03;13.10;99.90
19483;DHT22;9882;51.166;6.992;2022-11-15T16:11:40;13.10;99.90
19483;DHT22;9882;51.166;6.992;2022-11-15T16:14:09;13.10;99.90
19483;DHT22;9882;51.166;6.992;2022-11-15T16:16:38;13.10;99.90
19483;DHT22;9882;51.166;6.992;2022-11-15T16:19:10;13.10;99.90
19483;DHT22;9882;51.166;6.992;2022-11-15T16:21:39;13.00;99.90
19483;DHT22;9882;51.166;6.992;2022-11-15T16:24:07;13.00;99.90
19483;DHT22;9882;51.166;6.992;2022-11-15T16:26:37;13.00;99.90
19483;DHT22;9882;51.166;6.992;2022-11-15T16:29:05;13.10;99.90
19483;DHT22;9882;51.166;6.992;2022-11-15T16:31:36;13.10;99.90
19483;DHT22;9882;51.166;6.992;2022-11-15T16:34:04;13.00;99.90
19483;DHT22;9882;51.166;6.992;2022-11-15T16:36:35;13.00;99.90
19483;DHT22;9882;51.166;6.992;2022-11-15T16:39:04;13.00;99.90
19483;DHT22;9882;51.166;6.992;2022-11-15T16:41:32;13.00;99.90
19483;DHT22;9882;51.166;6.992;2022-11-15T16:44:01;13.00;99.90
19483;DHT22;9882;51.166;6.992;2022-11-15T16:46:29;13.00;99.90
19483;DHT22;9882;51.166;6.992;2022-11-15T16:48:58;13.00;99.90
19483;DHT22;9882;51.166;6.992;2022-11-15T16:51:26;13.00;99.90
19483;DHT22;9882;51.166;6.992;2022-11-15T16:53:56;12.90;99.90
19483;DHT22;9882;51.166;6.992;2022-11-15T16:56:26;13.00;99.90
19483;DHT22;9882;51.166;6.992;2022-11-15T16:58:55;13.00;99.90
19483;DHT22;9882;51.166;6.992;2022-11-15T17:01:26;13.00;99.90
19483;DHT22;9882;51.166;6.992;2022-11-15T17:03:55;13.00;99.90
19483;DHT22;9882;51.166;6.992;2022-11-15T17:06:25;13.00;99.90
19483;DHT22;9882;51.166;6.992;2022-11-15T17:08:55;12.90;99.90
19483;DHT22;9882;51.166;6.992;2022-11-15T17:11:24;13.00;99.90
19483;DHT22;9882;51.166;6.992;2022-11-15T17:13:56;13.00;99.90
19483;DHT22;9882;51.166;6.992;2022-11-15T17:16:25;13.00;99.90
19483;DHT22;9882;51.166;6.992;2022-11-15T17:18:54;13.00;99.90
19483;DHT22;9882;51.166;6.992;2022-11-15T17:21:22;12.90;99.90
19483;DHT22;9882;51.166;6.992;2022-11-15T17:23:55;13.00;99.90
19483;DHT22;9882;51.166;6.992;2022-11-15T17:26:26;13.00;99.90
19483;DHT22;9882;51.166;6.992;2022-11-15T17:28:57;12.90;99.90
19483;DHT22;9882;51.166;6.992;2022-11-15T17:31:27;13.00;99.90
19483;DHT22;9882;51.166;6.992;2022-11-15T17:34:00;13.00;99.90
19483;DHT22;9882;51.166;6.992;2022-11-15T17:36:29;13.00;99.90
19483;DHT22;9882;51.166;6.992;2022-11-15T17:38:59;12.90;99.90
19483;DHT22;9882;51.166;6.992;2022-11-15T17:41:28;13.00;99.90
19483;DHT22;9882;51.166;6.992;2022-11-15T17:43:58;12.90;99.90
19483;DHT22;9882;51.166;6.992;2022-11-15T17:46:28;13.00;99.90
19483;DHT22;9882;51.166;6.992;2022-11-15T17:48:57;13.00;99.90
19483;DHT22;9882;51.166;6.992;2022-11-15T17:51:25;13.00;99.90
19483;DHT22;9882;51.166;6.992;2022-11-15T17:53:54;13.00;99.90
19483;DHT22;9882;51.166;6.992;2022-11-15T17:56:25;12.90;99.90
19483;DHT22;9882;51.166;6.992;2022-11-15T17:58:55;13.00;99.90
19483;DHT22;9882;51.166;6.992;2022-11-15T18:01:25;13.00;99.90
19483;DHT22;9882;51.166;6.992;2022-11-15T18:03:54;13.00;99.90
19483;DHT22;9882;51.166;6.992;2022-11-15T18:06:24;12.90;99.90
19483;DHT22;9882;51.166;6.992;2022-11-15T18:08:53;13.00;99.90
19483;DHT22;9882;51.166;6.992;2022-11-15T18:11:25;12.90;99.90
19483;DHT22;9882;51.166;6.992;2022-11-15T18:13:56;13.00;99.90
19483;DHT22;9882;51.166;6.992;2022-11-15T18:16:26;12.90;99.90
19483;DHT22;9882;51.166;6.992;2022-11-15T18:18:57;13.00;99.90
19483;DHT22;9882;51.166;6.992;2022-11-15T18:21:28;12.90;99.90
19483;DHT22;9882;51.166;6.992;2022-11-15T18:23:59;12.80;99.90
19483;DHT22;9882;51.166;6.992;2022-11-15T18:26:29;12.90;99.90
19483;DHT22;9882;51.166;6.992;2022-11-15T18:29:02;12.80;99.90
19483;DHT22;9882;51.166;6.992;2022-11-15T18:31:31;12.80;99.90
19483;DHT22;9882;51.166;6.992;2022-11-15T18:34:00;12.80;99.90
19483;DHT22;9882;51.166;6.992;2022-11-15T18:36:30;12.90;99.90
19483;DHT22;9882;51.166;6.992;2022-11-15T18:39:00;12.80;99.90
19483;DHT22;9882;51.166;6.992;2022-11-15T18:41:31;12.80;99.90
19483;DHT22;9882;51.166;6.992;2022-11-15T18:44:01;12.80;99.90
19483;DHT22;9882;51.166;6.992;2022-11-15T18:46:31;12.90;99.90
19483;DHT22;9882;51.166;6.992;2022-11-15T18:49:01;12.70;99.90
19483;DHT22;9882;51.166;6.992;2022-11-15T18:51:30;12.80;99.90
19483;DHT22;9882;51.166;6.992;2022-11-15T18:54:00;12.70;99.90
19483;DHT22;9882;51.166;6.992;2022-11-15T18:56:31;12.70;99.90
19483;DHT22;9882;51.166;6.992;2022-11-15T18:59:00;12.70;99.90
19483;DHT22;9882;51.166;6.992;2022-11-15T19:01:31;12.70;99.90
19483;DHT22;9882;51.166;6.992;2022-11-15T19:04:04;12.70;99.90
19483;DHT22;9882;51.166;6.992;2022-11-15T19:06:36;12.60;99.90
19483;DHT22;9882;51.166;6.992;2022-11-15T19:09:06;12.70;99.90
19483;DHT22;9882;51.166;6.992;2022-11-15T19:11:37;12.60;99.90
19483;DHT22;9882;51.166;6.992;2022-11-15T19:14:08;12.60;99.90
19483;DHT22;9882;51.166;6.992;2022-11-15T19:16:38;12.50;99.90
19483;DHT22;9882;51.166;6.992;2022-11-15T19:19:09;12.50;99.90
19483;DHT22;9882;51.166;6.992;2022-11-15T19:21:38;12.60;99.90
19483;DHT22;9882;51.166;6.992;2022-11-15T19:24:07;12.50;99.90
19483;DHT22;9882;51.166;6.992;2022-11-15T19:26:38;12.50;99.90
19483;DHT22;9882;51.166;6.992;2022-11-15T19:29:08;12.60;99.90
19483;DHT22;9882;51.166;6.992;2022-11-15T19:31:37;12.50;99.90
19483;DHT22;9882;51.166;6.992;2022-11-15T19:34:06;12.50;99.90
19483;DHT22;9882;51.166;6.992;2022-11-15T19:36:36;12.50;99.90
19483;DHT22;9882;51.166;6.992;2022-11-15T19:39:08;12.40;99.90
19483;DHT22;9882;51.166;6.992;2022-11-15T19:41:42;12.50;99.90
19483;DHT22;9882;51.166;6.992;2022-11-15T19:44:12;12.40;99.90
19483;DHT22;9882;51.166;6.992;2022-11-15T19:46:41;12.50;99.90
19483;DHT22;9882;51.166;6.992;2022-11-15T19:49:10;12.50;99.90
19483;DHT22;9882;51.166;6.992;2022-11-15T19:51:39;12.50;99.90
19483;DHT22;9882;51.166;6.992;2022-11-15T19:54:10;12.50;99.90
19483;DHT22;9882;51.166;6.992;2022-11-15T19:56:41;12.40;99.90
19483;DHT22;9882;51.166;6.992;2022-11-15T19:59:09;12.50;99.90
19483;DHT22;9882;51.166;6.992;2022-11-15T20:01:39;12.60;99.90
19483;DHT22;9882;51.166;6.992;2022-11-15T20:04:08;12.50;99.90
19483;DHT22;9882;51.166;6.992;2022-11-15T20:06:40;12.40;99.90
19483;DHT22;9882;51.166;6.992;2022-11-15T20:09:12;12.50;99.90
19483;DHT22;9882;51.166;6.992;2022-11-15T20:11:42;12.50;99.90
19483;DHT22;9882;51.166;6.992;2022-11-15T20:14:11;12.50;99.90
19483;DHT22;9882;51.166;6.992;2022-11-15T20:16:40;12.40;99.90
19483;DHT22;9882;51.166;6.992;2022-11-15T20:19:09;12.50;99.90
19483;DHT22;9882;51.166;6.992;2022-11-15T20:21:38;12.50;99.90
19483;DHT22;9882;51.166;6.992;2022-11-15T20:24:07;12.40;99.90
19483;DHT22;9882;51.166;6.992;2022-11-15T20:26:36;12.40;99.90
19483;DHT22;9882;51.166;6.992;2022-11-15T20:29:06;12.30;99.90
19483;DHT22;9882;51.166;6.992;2022-11-15T20:31:36;12.30;99.90